CDT,Max TemperatureF,Mean TemperatureF,Min TemperatureF,Max Dew PointF,MeanDew PointF,Min DewpointF,Max Humidity, Mean Humidity, Min Humidity, Max Sea Level PressureIn, Mean Sea Level PressureIn, Min Sea Level PressureIn, Max VisibilityMiles, Mean VisibilityMiles, Min VisibilityMiles, Max Wind SpeedMPH, Mean Wind SpeedMPH, Max Gust SpeedMPH,PrecipitationIn, CloudCover, Events, WindDirDegrees
2010-10-1,81,62,43,48,43,40,89,57,25,30.22,30.15,30.06,10,10,7,20,7,28,0.00,0,,251
2010-10-2,62,51,40,45,34,27,86,57,27,30.45,30.38,30.25,10,10,10,18,7,25,0.00,0,,43
2010-10-3,65,51,36,36,32,29,82,55,27,30.43,30.36,30.27,10,10,10,18,9,31,0.00,0,,166
2010-10-4,70,56,42,39,37,34,76,54,32,30.29,30.24,30.17,10,10,10,24,14,30,0.00,0,,166
2010-10-5,78,63,47,46,42,38,76,54,31,30.23,30.19,30.14,10,10,10,24,14,30,0.00,0,,175
2010-10-6,79,63,46,52,46,40,80,59,37,30.25,30.21,30.17,10,10,10,20,8,25,0.00,0,,3
2010-10-7,80,61,41,42,38,33,83,52,20,30.29,30.19,30.06,10,10,10,14,6,18,0.00,0,,175
2010-10-8,91,74,56,52,46,39,86,52,17,30.05,29.94,29.85,10,10,10,21,11,29,0.00,0,,178
2010-10-9,80,65,49,52,46,38,83,52,21,29.98,29.93,29.88,10,10,10,26,7,33,T,0,,263
2010-10-10,73,59,44,51,46,41,89,64,38,29.99,29.93,29.86,10,10,9,16,6,29,0.02,2,Rain,214
2010-10-11,70,62,53,55,52,50,100,77,53,29.95,29.92,29.88,10,10,5,16,7,20,0.14,6,Rain,340
2010-10-12,71,56,41,50,45,38,89,62,35,30.34,30.14,29.95,10,10,10,28,14,36,0.00,1,,334
2010-10-13,67,52,36,37,32,23,86,53,19,30.44,30.37,30.32,10,10,10,20,7,24,0.00,0,,302
2010-10-14,78,60,41,37,31,21,70,41,12,30.30,30.16,30.07,10,10,9,22,8,28,0.00,0,,279
2010-10-15,77,56,35,39,35,32,89,55,20,30.17,30.07,29.94,10,10,10,22,10,29,0.00,0,,177
2010-10-16,70,55,40,44,35,27,82,52,22,30.21,30.07,29.91,10,10,10,26,13,33,0.00,0,,347
2010-10-17,68,51,34,35,30,24,75,50,24,30.22,30.12,30.00,10,10,10,16,6,21,0.00,0,,80
2010-10-18,65,52,39,33,30,27,70,47,24,30.15,30.09,30.02,10,10,10,14,6,17,T,0,,6
2010-10-19,72,52,31,38,32,27,82,54,25,30.12,30.04,29.93,10,10,10,23,8,28,0.00,0,,262
2010-10-20,77,56,35,32,29,25,75,45,15,30.05,30.01,29.94,10,10,10,23,9,28,0.00,0,,292
2010-10-21,71,52,32,34,29,24,82,51,20,30.13,30.04,29.94,10,10,10,15,7,18,0.00,0,,134
2010-10-22,71,56,41,53,44,32,86,67,47,29.92,29.85,29.76,10,10,10,20,9,24,0.00,1,,150
2010-10-23,75,64,52,58,54,46,100,71,41,29.75,29.66,29.57,10,7,1,20,10,24,0.00,5,,165
2010-10-24,66,57,47,52,50,45,93,75,56,29.70,29.63,29.52,10,10,8,20,9,24,0.00,4,Rain,270
2010-10-25,72,59,46,52,46,40,89,67,44,29.50,29.21,29.03,10,10,10,33,15,44,0.14,4,Rain,239
2010-10-26,62,52,42,40,31,23,76,50,23,29.56,29.38,29.23,10,10,10,40,22,54,0.00,2,,270
2010-10-27,55,43,31,29,25,19,69,48,26,30.26,29.87,29.57,10,10,10,44,19,55,T,2,,282
2010-10-28,61,45,28,27,24,21,75,50,25,30.50,30.42,30.28,10,10,10,22,10,26,0.00,0,,300
2010-10-29,70,52,34,30,27,24,64,42,20,30.37,30.10,29.89,10,10,10,23,13,33,0.00,0,,194
2010-10-30,69,52,35,33,29,26,82,52,21,30.07,29.95,29.86,10,10,10,17,8,23,0.00,0,,15
2010-10-31,52,43,33,35,32,29,85,66,46,30.25,30.14,30.03,10,10,10,18,9,22,0.00,1,,62